Latest METARs, TAFs and NOTAMs for EGGW


---------------------------------------------------------------------------
	(OBSERVATIONS)
EGGW 150350Z AUTO 26011KT 9999 SCT030/// BKN039/// //////TCU
    03/02 Q0989=
EGGW 150320Z AUTO 25011KT 9999 BKN023 BKN041 03/01 Q0989=
EGGW 150250Z AUTO 26009KT 9999 -RA BKN020 OVC047 03/01 Q0989=
EGGW 150220Z AUTO 26014KT 9999 -RA SCT026 BKN037 03/01 Q0989=
EGGW 150150Z AUTO 25015KT 9999 -RA SCT039 03/01 Q0988=
EGGW 150120Z AUTO 26014KT 9999 FEW045 02/00 Q0988=
---------------------------------------------------------------------------
	(FC)
Sorry, FC For EGGW Not Found
---------------------------------------------------------------------------
	(TERMINAL AREA FORECAST)
EGGW 142258Z 1500/1524 26009KT 9999 SCT030
    TEMPO 1500/1515 7000 SHRA BKN008
    PROB30 TEMPO 1504/1511 3000 SHRASN BKN003
    BECMG 1507/1510 34010KT
    PROB30 TEMPO 1511/1518 35015G25KT
    PROB30 TEMPO 1515/1520 7000 SHRA BKN012=
---------------------------------------------------------------------------
	(NOTAMS)


EGGW A3735/17 ACFT VACATING RWY: PARA 6 (B(IV)): TURN-OFFS FROM
    THE RWY ONTO TAXIWAYS CHARLIE AND HOTEL ARE PROHIBITED EXCEPT
    WHEN AUTHORISED BY ATC UK AIP EGGW AD 2.20 REFERS TEXT BOX
    REFERRING TO TURN OFFS FROM RWY: TURN-OFFS FROM THE RWY ONTO
    TAXIWAYS CHARLIE AND HOTEL ARE PROHIBITED EXCEPT WHEN AUTHORISED
    BY ATC, ADD ARROW POINTING TO TWY HOTEL UK AIP AD 2-EGGW-2-1
    REFERS TEXT BOX NEXT TO TWY CHARLIE: TURN-OFFS FROM THE RWY
    ONTO TAXIWAYS CHARLIE AND HOTEL ARE PROHIBITED EXCEPT WHEN
    AUTHORISED BY ATC, ADD ARROW POINTING TO TWY HOTEL UK AIP
    AD 2-EGGW-2-2 REFERS. 07 DEC 00:00 2017 UNTIL PERM. CREATED:
    10 NOV 11:36 2017

---------------------------------------------------------------------------